Time;durP1;ratioP1;P1;durP2;ratioP2;P2;SDS_P1;SDS_P2;PMS_P1;PMS_P2;Temp;Humidity;BMP_temperature;BMP_pressure;BME280_temperature;BME280_humidity;BME280_pressure;Samples;Min_cycle;Max_cycle;Signal;HPM_P1;HPM_P2
2022/12/26 00:01:01;;;;;;;10.80;3.67;;;9.80;99.90;;;;;;6118795;23;20403;-57
2022/12/26 00:03:29;;;;;;;7.77;4.27;;;9.80;99.90;;;;;;6120135;23;20402;-58
2022/12/26 00:05:56;;;;;;;5.73;3.70;;;9.90;99.90;;;;;;6110863;23;20451;-56
2022/12/26 00:08:23;;;;;;;7.70;3.90;;;9.90;99.90;;;;;;6119909;23;20400;-60
2022/12/26 00:10:51;;;;;;;5.80;4.37;;;9.90;99.90;;;;;;6119913;23;20427;-60
2022/12/26 00:13:18;;;;;;;6.30;3.60;;;9.90;99.90;;;;;;6120197;23;20449;-57
2022/12/26 00:15:45;;;;;;;5.90;3.93;;;9.90;99.90;;;;;;6120850;23;20434;-60
2022/12/26 00:18:12;;;;;;;4.27;3.30;;;9.90;99.90;;;;;;6119642;23;20418;-59
2022/12/26 00:20:39;;;;;;;6.00;3.20;;;10.00;99.90;;;;;;6118554;23;20411;-52
2022/12/26 00:23:07;;;;;;;5.43;3.57;;;10.00;99.90;;;;;;6119373;23;20423;-61
2022/12/26 00:25:34;;;;;;;5.13;3.90;;;10.00;99.90;;;;;;6120656;23;20439;-60
2022/12/26 00:28:03;;;;;;;6.93;3.53;;;10.00;99.90;;;;;;6120274;23;20419;-61
2022/12/26 00:30:29;;;;;;;7.47;4.10;;;10.00;99.90;;;;;;6111737;23;20391;-59
2022/12/26 00:32:56;;;;;;;5.40;3.77;;;10.00;99.90;;;;;;6119489;23;20431;-56
2022/12/26 00:35:26;;;;;;;8.53;4.57;;;10.00;99.90;;;;;;6120045;23;20392;-57
2022/12/26 00:37:53;;;;;;;3.93;3.10;;;10.00;99.90;;;;;;6120675;23;20399;-53
2022/12/26 00:40:20;;;;;;;7.10;3.43;;;10.00;99.90;;;;;;6120915;23;20419;-56
2022/12/26 00:42:47;;;;;;;5.63;3.50;;;10.00;99.90;;;;;;6114895;23;20418;-57
2022/12/26 00:45:15;;;;;;;9.10;4.40;;;10.10;99.90;;;;;;6116944;23;20447;-60
2022/12/26 00:47:42;;;;;;;5.30;3.03;;;10.10;99.90;;;;;;6117394;23;20407;-57
2022/12/26 00:50:10;;;;;;;4.20;3.43;;;10.10;99.90;;;;;;6120115;23;20424;-56
2022/12/26 00:52:39;;;;;;;9.80;3.63;;;10.10;99.90;;;;;;6120150;23;20396;-56
2022/12/26 00:55:07;;;;;;;11.60;3.90;;;10.10;99.90;;;;;;6120116;23;20392;-57
2022/12/26 00:57:34;;;;;;;4.17;3.40;;;10.20;99.90;;;;;;6120341;23;20415;-58
2022/12/26 01:00:21;;;;;;;8.27;3.70;;;10.10;99.90;;;;;;6120435;23;20408;-56
2022/12/26 01:02:53;;;;;;;6.30;3.40;;;10.10;99.90;;;;;;6120270;23;20435;-55
2022/12/26 01:05:23;;;;;;;7.40;3.93;;;10.10;99.90;;;;;;6120437;23;20427;-55
2022/12/26 01:07:50;;;;;;;5.93;3.50;;;10.10;99.90;;;;;;6119732;23;20508;-59
2022/12/26 01:10:17;;;;;;;3.07;2.77;;;10.10;99.90;;;;;;6111345;23;20388;-57
2022/12/26 01:12:43;;;;;;;9.00;3.17;;;10.20;99.90;;;;;;6119786;23;20423;-58
2022/12/26 01:15:10;;;;;;;4.17;3.20;;;10.20;99.90;;;;;;6115342;23;20388;-58
2022/12/26 01:17:37;;;;;;;8.70;3.70;;;10.20;99.90;;;;;;6119968;23;20404;-59
2022/12/26 01:20:06;;;;;;;5.20;3.20;;;10.20;99.90;;;;;;6112973;23;20403;-58
2022/12/26 01:22:33;;;;;;;6.37;4.13;;;10.20;99.90;;;;;;6119611;23;20399;-59
2022/12/26 01:25:00;;;;;;;4.33;3.70;;;10.20;99.90;;;;;;6119346;23;20428;-59
2022/12/26 01:27:30;;;;;;;7.60;4.30;;;10.20;99.90;;;;;;6119786;23;20407;-58
2022/12/26 01:30:02;;;;;;;6.17;5.43;;;10.20;99.90;;;;;;6120121;23;20427;-59
2022/12/26 01:32:29;;;;;;;3.93;2.70;;;10.20;99.90;;;;;;6119344;23;20418;-59
2022/12/26 01:34:56;;;;;;;4.77;2.80;;;10.20;99.90;;;;;;6120054;23;20410;-58
2022/12/26 01:37:24;;;;;;;4.47;3.17;;;10.20;99.90;;;;;;6118811;23;20426;-58
2022/12/26 01:39:52;;;;;;;3.90;3.23;;;10.20;99.90;;;;;;6119280;23;20404;-58
2022/12/26 01:42:22;;;;;;;6.37;3.37;;;10.20;99.90;;;;;;6118546;23;20435;-58
2022/12/26 01:45:00;;;;;;;5.07;3.37;;;10.20;99.90;;;;;;6118786;23;20932;-58
2022/12/26 01:47:37;;;;;;;4.60;3.17;;;10.20;99.90;;;;;;6118802;23;20423;-58
2022/12/26 01:50:06;;;;;;;3.93;3.40;;;10.30;99.90;;;;;;6119916;23;20399;-58
2022/12/26 01:52:42;;;;;;;3.37;2.70;;;10.30;99.90;;;;;;6119726;23;20364;-55
2022/12/26 01:55:14;;;;;;;5.67;3.43;;;10.30;99.90;;;;;;6120569;23;20406;-58
2022/12/26 01:57:44;;;;;;;4.43;3.33;;;10.20;99.90;;;;;;6119187;23;20394;-58
2022/12/26 02:00:12;;;;;;;3.97;3.10;;;10.20;99.90;;;;;;6120601;23;20411;-58
2022/12/26 02:05:34;;;;;;;3.33;2.50;;;10.20;99.90;;;;;;6117887;23;22372;-54
2022/12/26 02:08:05;;;;;;;4.47;3.23;;;10.20;99.90;;;;;;6119536;23;20395;-58
2022/12/26 02:10:36;;;;;;;4.97;3.23;;;10.20;99.90;;;;;;6120132;23;20415;-59
2022/12/26 02:13:06;;;;;;;3.23;2.63;;;10.20;99.90;;;;;;6120459;23;20448;-56
2022/12/26 02:15:36;;;;;;;3.87;3.57;;;10.20;99.90;;;;;;6119472;23;20430;-59
2022/12/26 02:18:03;;;;;;;4.77;3.10;;;10.20;99.90;;;;;;6119049;23;20392;-58
2022/12/26 02:20:41;;;;;;;4.27;3.67;;;10.20;99.90;;;;;;6119116;23;20488;-57
2022/12/26 02:24:08;;;;;;;6.10;3.73;;;10.30;99.90;;;;;;6118649;23;20383;-59
2022/12/26 02:27:10;;;;;;;4.60;3.30;;;10.30;99.90;;;;;;6001603;24;20450;-59
2022/12/26 02:30:06;;;;;;;4.80;3.07;;;10.30;99.90;;;;;;6118380;23;20383;-59
2022/12/26 02:33:00;;;;;;;5.00;3.50;;;10.30;99.90;;;;;;6117870;23;20422;-59
2022/12/26 02:35:40;;;;;;;4.93;2.97;;;10.40;99.90;;;;;;6119369;23;20391;-59
2022/12/26 02:38:20;;;;;;;3.53;2.93;;;10.40;99.90;;;;;;6118595;23;20375;-57
2022/12/26 02:40:56;;;;;;;7.20;2.50;;;10.40;99.90;;;;;;6121557;23;20384;-58
2022/12/26 02:43:32;;;;;;;4.10;3.30;;;10.40;99.90;;;;;;6121154;23;20383;-59
2022/12/26 02:49:06;;;;;;;4.50;2.60;;;10.50;99.90;;;;;;6121402;23;20368;-59
2022/12/26 03:14:28;;;;;;;6.13;3.37;;;10.60;99.90;;;;;;6120981;23;20368;-59
2022/12/26 03:19:59;;;;;;;4.03;3.10;;;10.60;99.90;;;;;;6121245;23;20410;-57
2022/12/26 03:22:35;;;;;;;4.53;3.43;;;10.60;99.90;;;;;;6121029;23;20400;-58
2022/12/26 03:27:50;;;;;;;3.73;2.70;;;10.70;99.90;;;;;;6120451;23;20392;-58
2022/12/26 03:33:02;;;;;;;8.73;2.97;;;10.70;99.90;;;;;;6119888;23;20663;-57
2022/12/26 03:35:32;;;;;;;3.40;2.90;;;10.70;99.90;;;;;;6120767;23;20473;-61
2022/12/26 03:38:06;;;;;;;4.20;3.40;;;10.70;99.90;;;;;;6120465;23;20368;-59
2022/12/26 04:44:05;;;;;;;5.00;2.63;;;10.70;99.90;;;;;;6061754;23;20409;-56
2022/12/26 04:46:35;;;;;;;9.10;3.60;;;10.80;99.90;;;;;;6061568;23;20436;-55
2022/12/26 04:51:50;;;;;;;3.90;3.20;;;10.80;99.90;;;;;;6120381;23;20427;-58
2022/12/26 04:54:18;;;;;;;4.70;3.10;;;10.80;99.90;;;;;;6120423;23;20419;-52
2022/12/26 04:56:45;;;;;;;3.17;2.87;;;10.80;99.90;;;;;;6120118;23;20424;-55
2022/12/26 04:59:12;;;;;;;3.10;2.80;;;10.80;99.90;;;;;;6121005;23;20404;-55
2022/12/26 05:10:03;;;;;;;2.90;2.33;;;10.80;99.90;;;;;;6121356;23;20404;-55
2022/12/26 05:12:30;;;;;;;2.83;2.60;;;10.90;99.90;;;;;;6121942;23;20408;-55
2022/12/26 05:14:57;;;;;;;5.53;2.53;;;10.90;99.90;;;;;;6121168;23;20416;-54
2022/12/26 05:28:49;;;;;;;3.63;2.43;;;10.90;99.90;;;;;;6119055;23;20383;-55
2022/12/26 05:31:17;;;;;;;4.20;3.20;;;10.90;99.90;;;;;;6110237;23;20500;-56
2022/12/26 05:36:33;;;;;;;2.83;2.60;;;10.90;99.90;;;;;;6120039;23;20624;-57
2022/12/26 05:39:00;;;;;;;4.47;3.27;;;10.90;99.90;;;;;;6120751;23;20403;-58
2022/12/26 05:41:27;;;;;;;4.27;2.60;;;10.90;99.90;;;;;;6119787;23;20406;-57
2022/12/26 05:43:54;;;;;;;4.00;3.10;;;11.00;99.90;;;;;;6120168;23;20467;-56
2022/12/26 05:46:21;;;;;;;6.07;3.10;;;11.00;99.90;;;;;;6120073;23;20447;-56
2022/12/26 05:48:49;;;;;;;4.10;3.57;;;11.00;99.90;;;;;;6109839;23;20423;-54
2022/12/26 05:51:17;;;;;;;4.47;3.60;;;11.00;99.90;;;;;;6119757;23;20411;-56
2022/12/26 05:53:43;;;;;;;3.80;2.50;;;11.00;99.90;;;;;;6120492;23;20415;-56
2022/12/26 05:56:13;;;;;;;5.17;2.93;;;11.00;99.90;;;;;;6120363;23;20396;-54
2022/12/26 05:58:40;;;;;;;4.40;2.50;;;11.00;99.90;;;;;;6119470;23;20411;-55
2022/12/26 06:01:09;;;;;;;3.43;2.47;;;11.00;99.90;;;;;;6117947;23;20396;-55
2022/12/26 06:03:36;;;;;;;2.30;2.10;;;11.00;99.90;;;;;;6118030;23;20403;-57
2022/12/26 06:06:05;;;;;;;2.93;2.40;;;11.00;99.90;;;;;;6121610;23;20435;-60
2022/12/26 06:08:33;;;;;;;3.03;2.73;;;11.00;99.90;;;;;;6122508;23;20415;-54
2022/12/26 06:11:06;;;;;;;3.97;2.87;;;11.00;99.90;;;;;;6123132;23;20451;-53
2022/12/26 06:13:33;;;;;;;3.63;2.80;;;11.00;99.90;;;;;;6123214;23;20384;-63
2022/12/26 06:16:05;;;;;;;2.90;2.60;;;11.00;99.90;;;;;;6122744;23;20408;-52
2022/12/26 06:18:32;;;;;;;3.83;3.20;;;10.90;99.90;;;;;;6122392;23;20404;-54
2022/12/26 06:20:59;;;;;;;3.20;2.60;;;10.90;99.90;;;;;;6122978;23;20437;-62
2022/12/26 06:23:28;;;;;;;4.37;2.60;;;11.00;99.90;;;;;;6122963;23;20420;-62
2022/12/26 06:25:55;;;;;;;3.13;2.37;;;11.00;99.90;;;;;;6123255;23;20411;-61
2022/12/26 06:28:23;;;;;;;3.20;2.37;;;11.00;99.90;;;;;;6123140;23;20420;-57
2022/12/26 06:30:50;;;;;;;7.33;2.90;;;11.00;99.90;;;;;;6117152;23;20418;-61
2022/12/26 06:33:17;;;;;;;2.70;2.17;;;11.00;99.90;;;;;;6113499;23;20431;-59
2022/12/26 06:35:44;;;;;;;4.67;2.53;;;11.00;99.90;;;;;;6122960;23;20408;-58
2022/12/26 06:38:11;;;;;;;2.60;2.20;;;11.00;99.90;;;;;;6122821;23;20399;-57
2022/12/26 06:40:52;;;;;;;3.57;2.27;;;11.10;99.90;;;;;;6122980;23;20399;-64
2022/12/26 06:43:19;;;;;;;3.07;2.40;;;11.10;99.90;;;;;;6123420;23;20391;-59
2022/12/26 06:45:55;;;;;;;3.77;2.17;;;11.10;99.90;;;;;;6123452;23;20503;-56
2022/12/26 06:48:22;;;;;;;3.00;2.70;;;11.10;99.90;;;;;;6115265;23;20426;-58
2022/12/26 06:50:49;;;;;;;3.90;2.73;;;11.10;99.90;;;;;;6115251;23;20423;-60
2022/12/26 06:53:16;;;;;;;2.60;2.37;;;11.10;99.90;;;;;;6120841;23;20423;-60
2022/12/26 06:55:44;;;;;;;2.83;2.23;;;11.10;99.90;;;;;;6120692;23;20419;-58
2022/12/26 06:58:11;;;;;;;4.03;2.67;;;11.10;99.90;;;;;;6113102;23;20387;-55
2022/12/26 07:00:38;;;;;;;2.90;2.70;;;11.10;99.90;;;;;;6120574;23;20439;-57
2022/12/26 07:03:05;;;;;;;3.00;2.60;;;11.10;99.90;;;;;;6120306;23;20763;-56
2022/12/26 07:05:35;;;;;;;3.87;2.30;;;11.10;99.90;;;;;;6120316;23;20399;-51
2022/12/26 07:08:02;;;;;;;9.30;3.63;;;11.00;99.90;;;;;;6114489;23;20453;-56
2022/12/26 07:10:29;;;;;;;4.40;2.60;;;11.00;99.90;;;;;;6120741;23;20399;-57
2022/12/26 07:12:57;;;;;;;3.90;2.37;;;11.00;99.90;;;;;;6120263;23;20412;-56
2022/12/26 07:15:24;;;;;;;2.97;2.53;;;11.00;99.90;;;;;;6121193;23;20407;-55
2022/12/26 07:17:52;;;;;;;6.63;3.70;;;11.00;99.90;;;;;;6118304;23;20406;-58
2022/12/26 07:20:19;;;;;;;6.67;3.10;;;11.00;99.90;;;;;;6115507;23;20513;-57
2022/12/26 07:22:46;;;;;;;3.70;2.90;;;11.10;99.90;;;;;;6113190;23;20506;-57
2022/12/26 07:25:13;;;;;;;3.30;2.67;;;11.10;99.90;;;;;;6121105;23;20434;-58
2022/12/26 07:27:40;;;;;;;2.57;2.10;;;11.10;99.90;;;;;;6121684;23;20507;-60
2022/12/26 07:30:10;;;;;;;3.33;2.40;;;11.10;99.90;;;;;;6122736;23;20414;-57
2022/12/26 07:32:37;;;;;;;3.60;2.10;;;11.10;99.90;;;;;;6113128;23;20396;-55
2022/12/26 07:35:04;;;;;;;2.63;2.37;;;11.10;99.90;;;;;;6123121;23;20415;-57
2022/12/26 07:37:31;;;;;;;3.97;2.40;;;11.10;99.90;;;;;;6122681;23;20423;-59
2022/12/26 07:39:58;;;;;;;2.90;2.50;;;11.10;99.90;;;;;;6122301;23;20466;-56
2022/12/26 07:42:25;;;;;;;3.33;2.60;;;11.10;99.90;;;;;;6122258;23;20419;-58
2022/12/26 07:44:52;;;;;;;3.50;2.73;;;11.10;99.90;;;;;;6122109;23;20473;-61
2022/12/26 07:47:20;;;;;;;4.13;2.87;;;11.10;99.90;;;;;;6122028;23;20443;-58
2022/12/26 07:49:47;;;;;;;3.57;2.37;;;11.10;99.90;;;;;;6121778;23;20761;-58
2022/12/26 07:52:17;;;;;;;3.20;2.70;;;11.10;99.90;;;;;;6121836;23;20427;-59
2022/12/26 07:54:44;;;;;;;2.67;2.00;;;11.20;99.90;;;;;;6121935;23;20435;-59
2022/12/26 07:57:11;;;;;;;2.03;1.83;;;11.20;99.90;;;;;;6121885;23;20718;-53
2022/12/26 07:59:38;;;;;;;3.93;2.50;;;11.20;99.90;;;;;;6121054;23;20423;-57
2022/12/26 08:02:05;;;;;;;3.37;2.50;;;11.20;99.90;;;;;;6121018;23;20480;-54
2022/12/26 08:04:34;;;;;;;4.07;3.23;;;11.20;99.90;;;;;;6121341;23;20403;-59
2022/12/26 08:07:00;;;;;;;4.13;2.60;;;11.20;99.90;;;;;;6114281;23;20486;-57
2022/12/26 08:09:27;;;;;;;2.83;2.33;;;11.20;99.90;;;;;;6121485;23;20418;-61
2022/12/26 08:11:54;;;;;;;3.03;2.60;;;11.20;99.90;;;;;;6121295;23;20407;-58
2022/12/26 08:14:21;;;;;;;3.00;2.30;;;11.20;99.90;;;;;;6112562;23;20471;-56
2022/12/26 08:16:48;;;;;;;3.10;2.40;;;11.20;99.90;;;;;;6120644;23;20419;-55
2022/12/26 08:19:15;;;;;;;3.57;2.77;;;11.20;99.90;;;;;;6116730;23;20387;-56
2022/12/26 08:21:46;;;;;;;2.67;2.13;;;11.20;99.90;;;;;;6120319;23;20422;-57
2022/12/26 08:24:13;;;;;;;4.97;3.13;;;11.20;99.90;;;;;;6121071;23;20396;-56
2022/12/26 08:26:40;;;;;;;3.60;2.73;;;11.20;99.90;;;;;;6113401;23;20699;-56
2022/12/26 08:29:07;;;;;;;3.53;2.40;;;11.30;99.90;;;;;;6121498;23;20431;-55
2022/12/26 08:31:34;;;;;;;3.63;2.60;;;11.30;99.90;;;;;;6121418;23;20408;-54
2022/12/26 08:34:01;;;;;;;2.83;2.57;;;11.30;99.90;;;;;;6121078;23;20463;-56
2022/12/26 08:36:28;;;;;;;4.17;2.80;;;11.30;99.90;;;;;;6121257;23;20406;-57
2022/12/26 08:38:57;;;;;;;2.47;2.27;;;11.20;99.90;;;;;;6119941;23;20415;-56
2022/12/26 08:41:25;;;;;;;4.23;2.67;;;11.30;99.90;;;;;;6120290;23;20392;-56
2022/12/26 08:43:53;;;;;;;3.73;2.27;;;11.30;99.90;;;;;;6120978;23;20415;-58
2022/12/26 08:46:22;;;;;;;4.00;2.80;;;11.30;99.90;;;;;;6119826;23;20431;-56
2022/12/26 08:48:50;;;;;;;2.30;2.10;;;11.30;99.90;;;;;;6120182;23;20526;-58
2022/12/26 08:51:22;;;;;;;6.10;3.10;;;11.30;99.90;;;;;;6120760;23;20411;-57
2022/12/26 08:53:50;;;;;;;3.70;2.70;;;11.30;99.90;;;;;;6119790;23;20424;-56
2022/12/26 08:56:22;;;;;;;2.40;2.13;;;11.30;99.90;;;;;;6119491;23;20412;-56
2022/12/26 08:58:52;;;;;;;6.23;3.27;;;11.30;99.90;;;;;;6120918;23;20388;-60
2022/12/26 09:01:21;;;;;;;5.90;3.20;;;11.40;99.90;;;;;;6120711;23;20399;-54
2022/12/26 09:03:48;;;;;;;3.60;2.63;;;11.40;99.90;;;;;;6119963;23;20424;-52
2022/12/26 09:06:15;;;;;;;5.60;3.70;;;11.60;99.90;;;;;;6113113;23;20407;-60
2022/12/26 09:08:43;;;;;;;4.73;2.67;;;11.60;99.90;;;;;;6120380;23;20454;-56
2022/12/26 09:11:12;;;;;;;5.80;3.97;;;11.60;99.90;;;;;;6112722;23;20439;-61
2022/12/26 09:13:41;;;;;;;6.90;2.73;;;11.60;99.90;;;;;;6111822;23;20415;-56
2022/12/26 09:16:10;;;;;;;3.83;2.37;;;11.70;99.90;;;;;;6120773;23;20423;-59
2022/12/26 09:18:37;;;;;;;3.63;2.70;;;11.70;99.90;;;;;;6120210;23;20407;-59
2022/12/26 09:21:06;;;;;;;3.80;2.97;;;11.60;99.90;;;;;;6120288;23;20421;-58
2022/12/26 09:23:37;;;;;;;7.80;2.87;;;11.60;99.90;;;;;;6120153;23;20408;-54
2022/12/26 09:26:06;;;;;;;5.50;3.20;;;11.70;99.90;;;;;;6121425;23;20396;-55
2022/12/26 09:28:33;;;;;;;5.90;2.93;;;11.70;99.90;;;;;;6120332;23;20471;-61
2022/12/26 09:31:02;;;;;;;4.30;3.20;;;11.70;99.90;;;;;;6120941;23;20435;-59
2022/12/26 09:33:32;;;;;;;6.87;3.30;;;11.70;99.90;;;;;;6120722;23;20399;-56
2022/12/26 09:35:59;;;;;;;4.13;3.40;;;11.70;99.90;;;;;;6120717;23;20435;-56
2022/12/26 09:38:26;;;;;;;3.10;2.30;;;11.70;99.90;;;;;;6119865;23;20419;-55
2022/12/26 09:41:08;;;;;;;3.20;2.90;;;11.70;99.90;;;;;;6120341;23;20419;-55
2022/12/26 09:43:48;;;;;;;2.53;1.97;;;11.70;99.90;;;;;;6120865;23;20431;-54
2022/12/26 09:46:28;;;;;;;3.50;3.20;;;11.80;99.90;;;;;;6120947;23;20446;-58
2022/12/26 09:48:59;;;;;;;4.07;2.53;;;11.80;99.90;;;;;;6120420;23;20431;-57
2022/12/26 09:51:26;;;;;;;2.57;2.03;;;11.80;99.90;;;;;;6120980;23;20443;-55
2022/12/26 09:53:55;;;;;;;4.87;3.07;;;11.80;99.90;;;;;;6120066;23;20701;-57
2022/12/26 09:56:23;;;;;;;3.90;2.67;;;11.80;99.90;;;;;;6120366;23;20442;-60
2022/12/26 09:58:53;;;;;;;2.83;2.10;;;11.80;99.90;;;;;;6120406;23;20407;-56
2022/12/26 10:01:26;;;;;;;2.83;2.50;;;11.80;99.90;;;;;;6120578;23;20432;-61
2022/12/26 10:03:59;;;;;;;2.27;1.83;;;11.80;99.90;;;;;;6120990;23;20395;-56
2022/12/26 10:06:30;;;;;;;1.70;1.60;;;11.90;99.90;;;;;;6120262;23;20613;-56
2022/12/26 10:09:13;;;;;;;2.30;1.73;;;11.90;99.90;;;;;;6119941;23;20443;-54
2022/12/26 10:11:56;;;;;;;2.60;2.33;;;11.80;99.90;;;;;;6120276;23;20423;-56
2022/12/26 10:14:36;;;;;;;3.67;2.67;;;11.90;99.90;;;;;;6120527;23;20392;-59
2022/12/26 10:17:13;;;;;;;2.87;2.30;;;11.90;99.90;;;;;;6120209;23;20434;-56
2022/12/26 10:19:52;;;;;;;3.07;2.47;;;12.00;99.90;;;;;;6120322;23;20419;-55
2022/12/26 10:22:40;;;;;;;3.60;2.40;;;12.10;99.90;;;;;;6119762;23;20431;-58
2022/12/26 10:25:17;;;;;;;4.10;2.83;;;12.20;99.90;;;;;;6114576;23;20419;-59
2022/12/26 10:27:47;;;;;;;3.10;2.50;;;12.20;99.90;;;;;;6118055;23;20451;-57
2022/12/26 10:30:20;;;;;;;2.93;2.00;;;12.20;99.90;;;;;;6120907;23;20412;-59
2022/12/26 10:32:55;;;;;;;2.80;1.67;;;12.30;99.90;;;;;;6119692;23;20501;-59
2022/12/26 10:35:28;;;;;;;2.73;2.43;;;12.40;99.90;;;;;;6120785;23;20401;-54
2022/12/26 10:37:56;;;;;;;1.97;1.30;;;12.30;99.90;;;;;;6120915;23;20459;-60
2022/12/26 10:40:27;;;;;;;2.80;1.87;;;12.20;99.90;;;;;;6120865;23;20431;-59
2022/12/26 10:43:00;;;;;;;3.73;2.10;;;12.10;99.90;;;;;;6114628;23;20439;-54
2022/12/26 10:45:36;;;;;;;2.67;2.17;;;12.00;99.90;;;;;;6121178;23;20426;-55
2022/12/26 10:48:05;;;;;;;3.60;2.40;;;12.00;99.90;;;;;;6121914;23;20435;-52
2022/12/26 10:50:36;;;;;;;2.97;1.80;;;12.00;99.90;;;;;;6122128;23;20404;-50
2022/12/26 10:53:06;;;;;;;2.93;2.20;;;12.10;99.90;;;;;;6121447;23;20431;-49
2022/12/26 10:55:35;;;;;;;2.80;2.33;;;12.00;99.90;;;;;;6121921;23;20380;-60
2022/12/26 10:58:10;;;;;;;3.77;2.40;;;12.00;99.90;;;;;;6121176;23;20435;-50
2022/12/26 11:00:37;;;;;;;3.60;2.00;;;11.90;99.90;;;;;;6122258;23;20387;-56
2022/12/26 11:03:07;;;;;;;1.93;1.53;;;12.00;99.90;;;;;;6122373;23;20438;-57
2022/12/26 11:05:37;;;;;;;3.00;1.77;;;12.00;99.90;;;;;;6121985;23;20413;-56
2022/12/26 11:08:15;;;;;;;3.40;2.00;;;12.00;99.90;;;;;;6121564;23;20451;-49
2022/12/26 11:10:46;;;;;;;2.53;1.80;;;12.00;99.90;;;;;;6121966;23;20383;-53
2022/12/26 11:13:20;;;;;;;2.60;1.67;;;12.00;99.90;;;;;;6121845;23;20428;-55
2022/12/26 11:15:49;;;;;;;1.90;1.60;;;12.00;99.90;;;;;;6113538;23;20400;-54
2022/12/26 11:18:23;;;;;;;2.57;1.80;;;12.00;99.90;;;;;;6122190;23;20431;-57
2022/12/26 11:20:50;;;;;;;3.30;1.93;;;11.90;99.90;;;;;;6114753;23;20890;-59
2022/12/26 11:23:26;;;;;;;2.43;2.00;;;11.90;99.90;;;;;;6118051;23;20472;-57
2022/12/26 11:25:55;;;;;;;1.97;1.70;;;11.90;99.90;;;;;;6121367;23;20403;-57
2022/12/26 11:28:29;;;;;;;3.30;2.00;;;11.80;99.90;;;;;;6120228;23;20471;-58
2022/12/26 11:30:57;;;;;;;1.70;1.43;;;11.70;99.90;;;;;;6114246;23;20411;-58
2022/12/26 11:33:31;;;;;;;2.20;1.80;;;11.70;99.90;;;;;;6120997;23;20400;-59
2022/12/26 11:36:07;;;;;;;3.43;2.27;;;11.50;99.90;;;;;;6121573;23;20442;-59
2022/12/26 11:38:43;;;;;;;2.97;2.20;;;11.40;99.90;;;;;;6121365;23;20387;-56
2022/12/26 11:41:35;;;;;;;2.30;1.87;;;11.40;99.90;;;;;;6121185;23;20415;-59
2022/12/26 11:44:17;;;;;;;2.90;2.10;;;11.40;99.90;;;;;;6121166;23;20396;-57
2022/12/26 11:46:49;;;;;;;2.20;1.77;;;11.30;99.90;;;;;;6121752;23;20434;-57
2022/12/26 11:49:22;;;;;;;2.20;1.80;;;11.30;99.90;;;;;;6121319;23;20450;-62
2022/12/26 11:51:51;;;;;;;3.20;2.17;;;11.30;99.90;;;;;;6121317;23;20432;-56
2022/12/26 11:54:36;;;;;;;4.30;2.40;;;11.30;99.90;;;;;;6121758;23;20403;-57
2022/12/26 11:57:16;;;;;;;1.80;1.60;;;11.30;99.90;;;;;;6122853;23;20387;-55
2022/12/26 11:59:43;;;;;;;2.40;1.57;;;11.40;99.90;;;;;;6122395;23;20384;-57
2022/12/26 12:02:26;;;;;;;2.63;2.00;;;11.40;99.90;;;;;;6121966;23;20411;-58
2022/12/26 12:05:01;;;;;;;2.63;1.70;;;11.40;99.90;;;;;;6121957;23;20386;-58
2022/12/26 12:07:43;;;;;;;2.80;2.00;;;11.30;99.90;;;;;;6121616;23;20406;-56
2022/12/26 12:10:41;;;;;;;3.10;2.27;;;11.40;99.90;;;;;;6121323;23;20415;-58
2022/12/26 12:13:18;;;;;;;2.70;1.90;;;11.40;99.90;;;;;;6121233;23;20422;-58
2022/12/26 12:15:54;;;;;;;3.60;2.50;;;11.40;99.90;;;;;;6121322;23;20446;-60
2022/12/26 12:18:31;;;;;;;2.20;2.00;;;11.40;99.90;;;;;;6120755;23;20403;-56
2022/12/26 12:21:10;;;;;;;2.30;2.10;;;11.40;99.90;;;;;;6122290;23;20439;-57
2022/12/26 12:23:56;;;;;;;3.03;2.07;;;11.30;99.90;;;;;;6121680;23;20406;-58
2022/12/26 12:26:32;;;;;;;3.60;2.40;;;11.30;99.90;;;;;;6121952;23;20432;-58
2022/12/26 12:29:20;;;;;;;8.13;3.40;;;11.30;99.90;;;;;;6120919;23;20456;-60
2022/12/26 12:32:07;;;;;;;1.93;1.67;;;11.30;99.90;;;;;;6120901;23;20442;-57
2022/12/26 12:34:52;;;;;;;4.40;2.30;;;11.30;99.90;;;;;;6121550;23;20392;-56
2022/12/26 12:37:31;;;;;;;5.20;3.17;;;11.20;99.90;;;;;;6120663;23;20463;-58
2022/12/26 12:40:07;;;;;;;6.03;2.17;;;11.30;99.90;;;;;;6120586;23;20388;-59
2022/12/26 12:42:45;;;;;;;2.50;2.13;;;11.30;99.90;;;;;;6120841;23;20466;-55
2022/12/26 12:45:26;;;;;;;4.70;2.70;;;11.40;99.90;;;;;;6120627;23;20415;-56
2022/12/26 12:48:07;;;;;;;2.30;2.10;;;11.40;99.90;;;;;;6113957;23;20431;-58
2022/12/26 12:50:40;;;;;;;4.17;2.80;;;11.40;99.90;;;;;;6121150;23;20384;-53
2022/12/26 12:53:18;;;;;;;2.80;2.10;;;11.40;99.90;;;;;;6119749;23;20388;-56
2022/12/26 12:55:57;;;;;;;3.20;2.00;;;11.40;99.90;;;;;;6121220;23;20364;-56
2022/12/26 12:58:33;;;;;;;3.03;2.27;;;11.40;99.90;;;;;;6120586;23;20387;-55
2022/12/26 13:01:05;;;;;;;3.77;2.57;;;11.50;99.90;;;;;;6121154;23;20367;-56
2022/12/26 13:03:39;;;;;;;3.37;2.77;;;11.50;99.90;;;;;;6121078;23;20387;-57
2022/12/26 13:06:20;;;;;;;3.27;2.70;;;11.50;99.90;;;;;;6121604;23;20442;-56
2022/12/26 13:08:51;;;;;;;3.20;2.10;;;11.50;99.90;;;;;;6121750;23;20427;-56
2022/12/26 13:11:25;;;;;;;2.10;1.90;;;11.50;99.90;;;;;;6112873;23;20427;-53
2022/12/26 13:13:56;;;;;;;3.23;2.33;;;11.50;99.90;;;;;;6122776;23;20376;-63
2022/12/26 13:16:27;;;;;;;5.83;2.50;;;11.50;99.90;;;;;;6122856;23;20424;-60
2022/12/26 13:18:58;;;;;;;58.47;30.00;;;11.50;99.90;;;;;;6121624;23;20403;-56
2022/12/26 13:21:26;;;;;;;9.17;6.50;;;11.50;99.90;;;;;;6111254;23;20446;-57
2022/12/26 13:26:51;;;;;;;3.60;1.73;;;11.60;99.90;;;;;;6120900;23;20747;-57
2022/12/26 13:29:31;;;;;;;3.20;2.23;;;11.60;99.90;;;;;;6119879;23;20464;-55
2022/12/26 13:32:03;;;;;;;4.27;3.00;;;11.60;99.90;;;;;;6119337;23;20416;-57
2022/12/26 13:34:30;;;;;;;2.90;2.33;;;11.50;99.90;;;;;;6120679;23;20411;-55
2022/12/26 13:36:59;;;;;;;3.40;2.67;;;11.50;99.90;;;;;;6119452;23;20411;-54
2022/12/26 13:39:37;;;;;;;2.90;2.40;;;11.50;99.90;;;;;;6111967;23;20495;-56
2022/12/26 13:45:59;;;;;;;2.50;2.03;;;11.40;99.90;;;;;;6121206;23;20482;-55
2022/12/26 13:49:00;;;;;;;2.80;2.30;;;11.30;99.90;;;;;;6121468;23;20452;-56
2022/12/26 13:51:51;;;;;;;5.00;2.67;;;11.30;99.90;;;;;;6121175;23;20403;-55
2022/12/26 13:54:20;;;;;;;3.37;2.40;;;11.20;99.90;;;;;;6112118;23;20415;-56
2022/12/26 13:57:19;;;;;;;2.87;2.60;;;11.10;99.90;;;;;;6116317;23;20431;-57
2022/12/26 14:00:14;;;;;;;2.97;2.57;;;11.10;99.90;;;;;;6119826;23;20384;-55
2022/12/26 14:03:15;;;;;;;6.03;2.60;;;11.00;99.90;;;;;;6119890;23;20431;-55
2022/12/26 14:06:01;;;;;;;2.80;2.27;;;11.00;99.90;;;;;;6119604;23;20402;-57
2022/12/26 14:08:36;;;;;;;4.77;2.97;;;11.00;99.90;;;;;;6101623;23;20439;-58
2022/12/26 14:11:21;;;;;;;2.77;2.53;;;10.90;99.90;;;;;;6119373;23;20383;-54
2022/12/26 14:14:09;;;;;;;3.97;3.53;;;10.90;99.90;;;;;;6115115;23;20380;-58
2022/12/26 14:16:47;;;;;;;5.60;2.90;;;10.80;99.90;;;;;;6118872;23;20376;-59
2022/12/26 14:19:30;;;;;;;4.03;2.13;;;10.80;99.90;;;;;;6112296;23;20427;-56
2022/12/26 14:22:06;;;;;;;4.67;3.67;;;10.80;99.90;;;;;;6108074;23;20411;-58
2022/12/26 14:24:43;;;;;;;4.20;3.03;;;10.80;99.90;;;;;;6119130;23;20403;-56
2022/12/26 14:27:30;;;;;;;5.27;3.77;;;10.70;99.90;;;;;;6119197;23;20403;-58
2022/12/26 14:30:06;;;;;;;4.10;3.23;;;10.70;99.90;;;;;;6119761;23;20904;-57
2022/12/26 14:32:43;;;;;;;3.70;2.43;;;10.70;99.90;;;;;;6119318;23;20388;-56
2022/12/26 14:35:20;;;;;;;3.53;3.03;;;10.70;99.90;;;;;;6121900;23;20427;-54
2022/12/26 14:37:56;;;;;;;4.57;2.60;;;10.70;99.90;;;;;;6122786;23;20392;-52
2022/12/26 14:40:30;;;;;;;4.70;3.37;;;10.70;99.90;;;;;;6122713;23;20475;-56
2022/12/26 14:43:12;;;;;;;4.17;2.83;;;10.60;99.90;;;;;;6122689;23;20395;-56
2022/12/26 14:45:45;;;;;;;3.50;2.43;;;10.60;99.90;;;;;;6119571;23;20419;-57
2022/12/26 14:48:54;;;;;;;4.27;3.20;;;10.50;99.90;;;;;;6122245;23;20395;-57
2022/12/26 14:51:37;;;;;;;4.30;2.93;;;10.50;99.90;;;;;;6121717;23;20384;-58
2022/12/26 14:54:45;;;;;;;9.13;3.90;;;10.40;99.90;;;;;;6121850;23;20391;-56
2022/12/26 14:57:47;;;;;;;9.50;3.87;;;10.40;99.90;;;;;;6122075;23;20433;-58
2022/12/26 15:00:32;;;;;;;7.53;4.07;;;10.40;99.90;;;;;;6122004;23;20383;-56
2022/12/26 15:03:44;;;;;;;10.33;5.10;;;9.80;99.90;;;;;;6121841;23;20407;-55
2022/12/26 15:06:39;;;;;;;6.87;3.73;;;10.40;99.90;;;;;;6108713;23;20391;-56
2022/12/26 15:09:34;;;;;;;5.93;3.00;;;10.40;99.90;;;;;;6121719;23;20451;-55
2022/12/26 15:12:37;;;;;;;6.97;3.83;;;10.50;99.90;;;;;;6122030;23;20424;-58
2022/12/26 15:15:22;;;;;;;11.97;6.00;;;10.50;99.90;;;;;;6080273;23;20403;-52
2022/12/26 15:18:08;;;;;;;11.13;4.80;;;10.50;99.90;;;;;;6121855;23;20432;-57
2022/12/26 15:21:02;;;;;;;7.00;4.93;;;10.60;99.90;;;;;;6120456;23;20447;-54
2022/12/26 15:24:00;;;;;;;7.80;3.83;;;10.60;99.90;;;;;;6121948;23;20387;-58
2022/12/26 15:27:04;;;;;;;10.63;6.00;;;10.60;99.90;;;;;;6120817;23;20432;-54
2022/12/26 15:29:56;;;;;;;5.30;3.67;;;10.70;99.90;;;;;;6081407;23;20443;-60
2022/12/26 15:32:29;;;;;;;11.20;6.27;;;10.70;99.90;;;;;;6123477;23;20422;-49